createdAt,value
2023-01-19T00:04:56.814Z,95.30
2023-01-19T00:09:59.684Z,88.80
2023-01-19T00:15:02.428Z,70.90
2023-01-19T00:20:06.215Z,71.50
2023-01-19T00:25:09.800Z,112.70
2023-01-19T00:30:12.985Z,75.70
2023-01-19T00:35:15.963Z,75.00
2023-01-19T00:40:18.788Z,93.30
2023-01-19T00:45:24.427Z,61.70
2023-01-19T00:50:29.629Z,99.80
2023-01-19T00:55:33.642Z,75.90
2023-01-19T01:00:36.347Z,67.20
2023-01-19T01:05:42.021Z,58.10
2023-01-19T01:10:44.700Z,89.20
2023-01-19T01:15:51.095Z,64.70
2023-01-19T01:21:01.091Z,54.70
2023-01-19T01:26:03.919Z,79.10
2023-01-19T01:31:06.666Z,76.60
2023-01-19T01:36:11.207Z,71.00
2023-01-19T01:41:14.180Z,65.10
2023-01-19T01:46:19.993Z,96.60
2023-01-19T01:51:39.378Z,65.20
2023-01-19T01:56:45.343Z,64.00
2023-01-19T02:02:06.927Z,74.00
2023-01-19T02:07:33.359Z,97.30
2023-01-19T02:12:54.802Z,72.60
2023-01-19T02:17:58.716Z,75.80
2023-01-19T02:23:05.695Z,78.60
2023-01-19T02:28:09.199Z,100.20
2023-01-19T02:33:11.931Z,74.50
2023-01-19T02:38:17.477Z,70.10
2023-01-19T02:43:20.571Z,67.70
2023-01-19T02:48:23.369Z,94.60
2023-01-19T02:53:38.053Z,71.10
2023-01-19T02:59:00.221Z,68.40
2023-01-19T03:04:14.631Z,71.80
2023-01-19T03:09:20.381Z,91.90
2023-01-19T03:14:28.370Z,74.50
2023-01-19T03:19:41.585Z,65.00
2023-01-19T03:24:46.223Z,70.30
2023-01-19T03:29:53.849Z,68.50
2023-01-19T03:35:00.971Z,107.50
2023-01-19T03:40:04.020Z,76.80
2023-01-19T03:45:09.206Z,167.40
2023-01-19T03:50:20.788Z,111.60
2023-01-19T03:55:23.498Z,134.20
2023-01-19T04:00:26.487Z,85.10
2023-01-19T04:05:29.584Z,107.50
2023-01-19T04:10:32.497Z,81.90
2023-01-19T04:15:35.378Z,80.70
2023-01-19T04:20:38.304Z,85.00
2023-01-19T04:25:41.005Z,119.50
2023-01-19T04:30:43.805Z,82.70
2023-01-19T04:35:47.468Z,91.80
2023-01-19T04:40:52.766Z,115.90
2023-01-19T04:45:55.475Z,145.30
2023-01-19T04:50:58.490Z,69.90
2023-01-19T04:56:01.199Z,116.70
2023-01-19T05:01:08.119Z,112.10
2023-01-19T05:06:10.888Z,94.10
2023-01-19T05:11:13.803Z,70.00
2023-01-19T05:16:16.563Z,102.90
2023-01-19T05:21:20.111Z,78.10
2023-01-19T05:26:22.794Z,65.50
2023-01-19T05:31:25.645Z,112.70
2023-01-19T05:36:28.545Z,66.50
2023-01-19T05:41:31.204Z,64.60
2023-01-19T05:46:34.885Z,62.60
2023-01-19T05:51:40.605Z,81.60
2023-01-19T05:56:43.709Z,66.80
2023-01-19T06:01:46.433Z,55.70
2023-01-19T06:06:50.131Z,69.40
2023-01-19T06:11:54.381Z,96.50
2023-01-19T06:16:57.066Z,79.50
2023-01-19T06:21:59.969Z,75.20
2023-01-19T06:27:02.875Z,85.50
2023-01-19T06:32:06.333Z,112.70
2023-01-19T06:37:11.397Z,93.80
2023-01-19T06:42:14.494Z,94.80
2023-01-19T06:47:17.495Z,78.20
2023-01-19T06:52:20.888Z,103.30
2023-01-19T06:57:23.785Z,78.50
2023-01-19T07:02:28.549Z,90.40
2023-01-19T07:07:32.836Z,80.80
2023-01-19T07:12:35.765Z,91.70
2023-01-19T07:17:39.168Z,86.30
2023-01-19T07:22:46.725Z,83.20
2023-01-19T07:27:49.685Z,96.00
2023-01-19T07:32:56.168Z,95.80
2023-01-19T07:37:59.409Z,89.00
2023-01-19T07:43:03.149Z,98.80
2023-01-19T07:48:06.919Z,84.60
2023-01-19T07:53:10.046Z,107.00
2023-01-19T08:08:28.682Z,59.30
2023-01-19T08:13:34.649Z,97.20
2023-01-19T08:18:39.584Z,101.40
2023-01-19T08:23:45.046Z,92.70
2023-01-19T08:28:50.548Z,96.90
2023-01-19T08:33:55.223Z,113.80
2023-01-19T08:39:00.205Z,91.30
2023-01-19T08:44:03.753Z,98.00
2023-01-19T08:49:06.525Z,108.70
2023-01-19T08:54:09.980Z,122.50
2023-01-19T08:59:14.104Z,102.10
2023-01-19T09:04:16.935Z,130.80
2023-01-19T09:09:19.821Z,131.20
2023-01-19T09:14:22.617Z,124.10
2023-01-19T09:19:25.544Z,121.60
2023-01-19T09:24:28.729Z,82.20
2023-01-19T09:29:31.469Z,87.40
2023-01-19T09:34:34.172Z,70.30
2023-01-19T09:39:36.875Z,88.80
2023-01-19T09:44:41.993Z,81.90
2023-01-19T09:49:51.250Z,87.70
2023-01-19T09:54:56.715Z,83.70
2023-01-19T09:59:59.873Z,64.70
2023-01-19T10:05:05.759Z,71.90
2023-01-19T10:10:16.698Z,64.50
2023-01-19T10:15:57.188Z,67.80
2023-01-19T10:21:05.970Z,72.90
2023-01-19T10:26:15.528Z,83.70
2023-01-19T10:31:22.968Z,89.50
2023-01-19T10:36:33.802Z,76.60
2023-01-19T10:41:47.593Z,73.90
2023-01-19T10:46:54.481Z,87.40
2023-01-19T10:51:59.068Z,89.80
2023-01-19T10:57:05.068Z,91.00
2023-01-19T11:02:21.295Z,107.70
2023-01-19T11:07:33.945Z,94.90
2023-01-19T11:12:41.938Z,92.60
2023-01-19T11:17:46.876Z,84.20
2023-01-19T11:23:05.597Z,76.10
2023-01-19T11:28:18.953Z,75.40
2023-01-19T11:33:33.643Z,89.40
2023-01-19T11:38:43.570Z,84.50
2023-01-19T11:43:51.809Z,80.50
2023-01-19T11:49:12.916Z,90.10
2023-01-19T11:54:23.793Z,83.30
2023-01-19T11:59:26.597Z,75.50
2023-01-19T12:04:34.546Z,80.90
2023-01-19T12:09:48.826Z,87.00
2023-01-19T12:15:00.859Z,78.10
2023-01-19T12:20:29.124Z,92.30
2023-01-19T12:25:47.235Z,84.40
2023-01-19T12:30:52.216Z,85.70
2023-01-19T12:36:04.851Z,86.90
2023-01-19T12:41:30.554Z,77.70
2023-01-19T12:46:36.938Z,97.30
2023-01-19T12:51:41.201Z,88.60
2023-01-19T12:56:44.127Z,89.60
2023-01-19T13:02:25.370Z,82.10
2023-01-19T13:07:28.178Z,86.80
2023-01-19T13:12:31.063Z,83.80
2023-01-19T13:17:50.562Z,67.40
2023-01-19T13:23:18.646Z,81.70
2023-01-19T13:28:35.846Z,131.70
2023-01-19T13:33:51.344Z,97.30
2023-01-19T13:38:56.283Z,95.40
2023-01-19T13:44:15.415Z,90.60
2023-01-19T13:49:36.901Z,83.60
2023-01-19T13:54:53.317Z,94.10
2023-01-19T14:00:18.156Z,107.00
2023-01-19T14:05:24.552Z,95.40
2023-01-19T14:10:28.907Z,70.70
2023-01-19T14:15:34.393Z,84.00
2023-01-19T14:20:37.891Z,84.10
2023-01-19T14:25:45.046Z,88.60
2023-01-19T14:31:24.153Z,77.30
2023-01-19T14:36:41.997Z,85.70
2023-01-19T14:41:52.676Z,76.40
2023-01-19T14:46:56.547Z,82.20
2023-01-19T14:52:01.077Z,91.80
2023-01-19T14:57:04.569Z,71.50
2023-01-19T15:02:07.855Z,80.00
2023-01-19T15:07:19.228Z,78.10
2023-01-19T15:12:24.760Z,87.70
2023-01-19T15:17:27.460Z,85.60
2023-01-19T15:22:30.216Z,87.90
2023-01-19T15:27:32.912Z,100.00
2023-01-19T15:32:35.745Z,96.30
2023-01-19T15:37:38.413Z,121.50
2023-01-19T15:42:41.277Z,103.10
2023-01-19T15:47:44.021Z,117.50
2023-01-19T15:52:46.689Z,108.30
2023-01-19T15:57:49.429Z,136.50
2023-01-19T16:02:52.300Z,111.00
2023-01-19T16:07:55.201Z,128.60
2023-01-19T16:12:57.924Z,146.60
2023-01-19T16:18:00.620Z,168.50
2023-01-19T16:23:17.329Z,125.50
2023-01-19T16:28:20.080Z,106.70
2023-01-19T16:33:23.302Z,127.50
2023-01-19T16:43:28.653Z,112.20
2023-01-19T16:48:32.396Z,99.40
2023-01-19T16:53:35.419Z,127.00
2023-01-19T16:58:38.597Z,127.70
2023-01-19T17:08:44.812Z,125.40
2023-01-19T17:13:54.568Z,162.10
2023-01-19T17:18:59.013Z,149.60
2023-01-19T17:24:02.143Z,132.30
2023-01-19T17:29:07.649Z,139.20
2023-01-19T17:34:10.591Z,153.10
2023-01-19T17:39:14.930Z,150.20
2023-01-19T17:44:18.150Z,158.20
2023-01-19T17:49:20.852Z,105.30
2023-01-19T17:54:23.523Z,127.60
2023-01-19T17:59:26.240Z,117.20
2023-01-19T18:04:30.808Z,117.50
2023-01-19T18:09:34.789Z,89.30
2023-01-19T18:14:38.133Z,92.90
2023-01-19T18:19:40.849Z,146.20
2023-01-19T18:24:44.540Z,100.30
2023-01-19T18:29:47.450Z,92.70
2023-01-19T18:34:52.389Z,115.10
2023-01-19T18:39:59.595Z,155.90
2023-01-19T18:45:02.918Z,223.20
2023-01-19T18:55:08.908Z,98.00
2023-01-19T19:00:12.616Z,130.00
2023-01-19T19:05:15.554Z,109.40
2023-01-19T19:10:18.238Z,101.60
2023-01-19T19:15:21.533Z,88.50
2023-01-19T19:25:26.789Z,106.60
2023-01-19T19:30:29.542Z,166.30
2023-01-19T19:35:32.258Z,139.10
2023-01-19T19:40:34.940Z,290.70
2023-01-19T19:45:38.582Z,276.40
2023-01-19T19:50:41.487Z,260.90
2023-01-19T19:55:44.161Z,159.50
2023-01-19T20:00:47.031Z,129.90
2023-01-19T20:05:49.795Z,149.00
2023-01-19T20:10:52.462Z,150.50
2023-01-19T20:15:55.217Z,121.40
2023-01-19T20:20:59.267Z,126.10
2023-01-19T20:26:05.494Z,162.80
2023-01-19T20:31:28.569Z,156.40
2023-01-19T20:36:31.897Z,142.70
2023-01-19T20:46:37.957Z,91.70
2023-01-19T20:51:46.225Z,154.70
2023-01-19T20:56:49.020Z,83.80
2023-01-19T21:01:52.266Z,93.60
2023-01-19T21:11:57.754Z,85.40
2023-01-19T21:17:00.527Z,64.30
2023-01-19T21:22:03.183Z,84.60
2023-01-19T21:27:05.937Z,68.80
2023-01-19T21:32:08.617Z,71.70
2023-01-19T21:37:11.332Z,66.30
2023-01-19T21:42:14.023Z,95.70
2023-01-19T21:47:16.700Z,90.10
2023-01-19T21:52:19.426Z,75.50
2023-01-19T21:57:22.129Z,71.10
2023-01-19T22:02:38.006Z,93.10
2023-01-19T22:07:41.716Z,68.80
2023-01-19T22:12:44.458Z,86.50
2023-01-19T22:17:47.106Z,65.50
2023-01-19T22:22:49.857Z,90.10
2023-01-19T22:27:52.496Z,92.90
2023-01-19T22:32:55.189Z,82.30
2023-01-19T22:37:57.838Z,91.60
2023-01-19T22:43:00.549Z,88.10
2023-01-19T22:48:03.305Z,99.80
2023-01-19T22:53:06.045Z,83.90
2023-01-19T22:58:08.680Z,90.70
2023-01-19T23:03:11.331Z,93.90
2023-01-19T23:08:14.044Z,87.40
2023-01-19T23:13:16.743Z,100.70
2023-01-19T23:18:19.418Z,89.00
2023-01-19T23:23:22.121Z,69.40
2023-01-19T23:28:24.836Z,118.00
2023-01-19T23:33:27.584Z,95.30
2023-01-19T23:38:30.334Z,94.90
2023-01-19T23:43:33.646Z,74.60
2023-01-19T23:48:36.960Z,75.10
2023-01-19T23:58:43.962Z,117.80
